createdAt,value
2023-02-12T00:01:27.099Z,113.87
2023-02-12T00:03:54.640Z,113.50
2023-02-12T00:06:22.499Z,114.47
2023-02-12T00:08:51.890Z,114.20
2023-02-12T00:11:27.933Z,112.87
2023-02-12T00:13:57.473Z,113.30
2023-02-12T00:16:28.824Z,114.00
2023-02-12T00:18:58.688Z,114.43
2023-02-12T00:21:26.864Z,113.87
2023-02-12T00:23:55.315Z,113.27
2023-02-12T00:26:23.885Z,113.30
2023-02-12T00:28:52.541Z,113.97
2023-02-12T00:31:27.974Z,112.77
2023-02-12T00:33:59.164Z,113.97
2023-02-12T00:36:30.615Z,114.27
2023-02-12T00:38:59.081Z,114.57
2023-02-12T00:41:27.281Z,113.77
2023-02-12T00:43:55.334Z,113.90
2023-02-12T00:46:23.090Z,114.10
2023-02-12T00:48:50.214Z,113.60
2023-02-12T00:51:20.756Z,113.70
2023-02-12T00:53:48.360Z,113.30
2023-02-12T00:56:16.208Z,113.63
2023-02-12T00:58:43.302Z,113.23
2023-02-12T01:01:10.756Z,114.00
2023-02-12T01:03:38.599Z,114.67
2023-02-12T01:06:06.531Z,114.47
2023-02-12T01:08:34.050Z,114.00
2023-02-12T01:11:05.568Z,114.27
2023-02-12T01:13:34.802Z,113.90
2023-02-12T01:16:22.868Z,114.47
2023-02-12T01:18:55.783Z,113.87
2023-02-12T01:21:30.427Z,112.90
2023-02-12T01:23:58.538Z,113.30
2023-02-12T01:26:27.138Z,113.90
2023-02-12T01:29:01.284Z,113.50
2023-02-12T01:31:34.121Z,113.87
2023-02-12T01:34:02.943Z,114.50
2023-02-12T01:36:31.882Z,113.50
2023-02-12T01:38:59.644Z,113.27
2023-02-12T01:41:33.371Z,113.67
2023-02-12T01:44:28.492Z,113.30
2023-02-12T01:47:00.283Z,112.90
2023-02-12T01:49:42.747Z,113.33
2023-02-12T01:52:30.125Z,113.20
2023-02-12T01:55:04.849Z,113.90
2023-02-12T01:57:39.109Z,114.03
2023-02-12T02:00:15.797Z,110.77
2023-02-12T02:02:54.630Z,114.23
2023-02-12T02:05:55.833Z,113.93
2023-02-12T02:08:23.793Z,113.20
2023-02-12T02:10:50.909Z,114.07
2023-02-12T02:13:37.272Z,113.97
2023-02-12T02:16:26.362Z,113.87
2023-02-12T02:19:09.237Z,113.87
2023-02-12T02:22:31.689Z,113.50
2023-02-12T02:25:58.044Z,113.47
2023-02-12T02:29:06.801Z,114.03
2023-02-12T02:31:44.627Z,113.87
2023-02-12T02:34:38.749Z,112.90
2023-02-12T02:37:32.262Z,112.70
2023-02-12T02:40:18.683Z,113.57
2023-02-12T02:43:06.849Z,113.87
2023-02-12T02:45:46.266Z,113.40
2023-02-12T02:48:51.904Z,113.87
2023-02-12T02:51:31.970Z,113.27
2023-02-12T02:54:23.419Z,113.43
2023-02-12T02:56:57.865Z,113.37
2023-02-12T02:59:34.285Z,113.20
2023-02-12T03:02:33.315Z,113.27
2023-02-12T03:05:21.336Z,113.70
2023-02-12T03:08:04.387Z,112.73
2023-02-12T03:10:48.546Z,112.90
2023-02-12T03:13:33.897Z,113.43
2023-02-12T03:16:10.161Z,112.97
2023-02-12T03:18:52.133Z,112.40
2023-02-12T03:21:34.023Z,113.27
2023-02-12T03:24:33.418Z,113.27
2023-02-12T03:27:10.408Z,112.80
2023-02-12T03:29:38.057Z,112.07
2023-02-12T03:32:39.509Z,111.67
2023-02-12T03:35:27.247Z,113.80
2023-02-12T03:38:16.683Z,112.93
2023-02-12T03:41:09.534Z,112.10
2023-02-12T03:44:02.323Z,112.97
2023-02-12T03:47:02.755Z,113.17
2023-02-12T03:49:49.517Z,113.20
2023-02-12T03:52:17.024Z,112.60
2023-02-12T03:54:44.813Z,113.77
2023-02-12T03:57:21.501Z,113.77
2023-02-12T03:59:49.968Z,113.37
2023-02-12T04:02:19.584Z,112.90
2023-02-12T04:04:48.421Z,111.47
2023-02-12T04:07:17.126Z,113.27
2023-02-12T04:09:44.413Z,113.67
2023-02-12T04:12:50.509Z,112.70
2023-02-12T04:16:03.117Z,113.17
2023-02-12T04:18:47.058Z,113.17
2023-02-12T04:22:02.436Z,112.93
2023-02-12T04:25:17.499Z,113.37
2023-02-12T04:28:37.335Z,112.93
2023-02-12T04:31:23.906Z,112.80
2023-02-12T04:34:18.880Z,113.57
2023-02-12T04:37:03.190Z,113.00
2023-02-12T04:39:37.127Z,113.57
2023-02-12T04:42:04.907Z,113.07
2023-02-12T04:44:38.654Z,113.27
2023-02-12T04:47:06.208Z,113.20
2023-02-12T04:49:33.411Z,113.20
2023-02-12T04:52:00.441Z,113.10
2023-02-12T04:54:27.497Z,113.33
2023-02-12T04:56:54.537Z,112.07
2023-02-12T04:59:21.528Z,113.00
2023-02-12T05:01:49.096Z,113.13
2023-02-12T05:04:17.892Z,113.53
2023-02-12T05:06:46.556Z,113.00
2023-02-12T05:09:20.726Z,113.30
2023-02-12T05:11:47.720Z,111.97
2023-02-12T05:14:15.951Z,112.97
2023-02-12T05:16:43.071Z,113.37
2023-02-12T05:19:10.319Z,113.07
2023-02-12T05:21:38.866Z,112.77
2023-02-12T05:24:06.894Z,112.97
2023-02-12T05:26:34.667Z,112.90
2023-02-12T05:29:03.253Z,112.90
2023-02-12T05:31:30.524Z,113.07
2023-02-12T05:33:57.617Z,112.87
2023-02-12T05:36:25.176Z,113.17
2023-02-12T05:38:53.757Z,111.67
2023-02-12T05:41:24.879Z,113.33
2023-02-12T05:43:52.913Z,113.07
2023-02-12T05:46:21.844Z,113.17
2023-02-12T05:48:48.974Z,113.33
2023-02-12T05:51:25.066Z,111.53
2023-02-12T05:53:59.956Z,113.57
2023-02-12T05:56:33.117Z,113.30
2023-02-12T05:59:07.367Z,113.27
2023-02-12T06:01:39.909Z,112.93
2023-02-12T06:04:24.290Z,112.97
2023-02-12T06:06:53.885Z,113.00
2023-02-12T06:09:21.345Z,113.17
2023-02-12T06:11:48.587Z,112.50
2023-02-12T06:14:20.622Z,113.00
2023-02-12T06:16:51.670Z,112.50
2023-02-12T06:19:20.195Z,111.47
2023-02-12T06:21:47.963Z,113.03
2023-02-12T06:24:17.771Z,112.67
2023-02-12T06:26:45.869Z,112.77
2023-02-12T06:29:13.391Z,112.97
2023-02-12T06:31:40.752Z,112.33
2023-02-12T06:34:12.386Z,112.57
2023-02-12T06:36:44.516Z,112.20
2023-02-12T06:39:15.099Z,112.03
2023-02-12T06:41:43.789Z,113.30
2023-02-12T06:44:13.409Z,112.47
2023-02-12T06:46:40.728Z,112.73
2023-02-12T06:49:07.882Z,111.90
2023-02-12T06:51:38.115Z,111.30
2023-02-12T06:54:05.600Z,112.57
2023-02-12T06:56:33.032Z,111.27
2023-02-12T06:59:01.179Z,112.77
2023-02-12T07:01:30.564Z,113.20
2023-02-12T07:04:03.100Z,112.87
2023-02-12T07:06:34.241Z,112.57
2023-02-12T07:09:02.758Z,112.97
2023-02-12T07:11:37.782Z,112.23
2023-02-12T07:14:06.953Z,112.77
2023-02-12T07:16:34.451Z,111.97
2023-02-12T07:19:01.941Z,113.07
2023-02-12T07:21:28.890Z,113.37
2023-02-12T07:23:56.384Z,113.20
2023-02-12T07:26:23.449Z,113.13
2023-02-12T07:28:51.888Z,113.27
2023-02-12T07:31:23.205Z,112.67
2023-02-12T07:33:56.386Z,112.77
2023-02-12T07:36:27.240Z,113.23
2023-02-12T07:38:55.864Z,113.17
2023-02-12T07:41:30.864Z,113.20
2023-02-12T07:44:10.204Z,114.17
2023-02-12T07:46:48.512Z,113.87
2023-02-12T07:49:22.506Z,113.67
2023-02-12T07:51:50.826Z,112.57
2023-02-12T07:54:18.354Z,113.10
2023-02-12T07:56:46.934Z,113.30
2023-02-12T07:59:18.763Z,113.63
2023-02-12T08:01:52.164Z,113.47
2023-02-12T08:04:25.251Z,113.77
2023-02-12T08:06:56.069Z,113.57
2023-02-12T08:09:30.731Z,113.67
2023-02-12T08:12:01.159Z,113.57
2023-02-12T08:14:31.322Z,114.20
2023-02-12T08:16:59.358Z,113.37
2023-02-12T08:19:27.010Z,113.77
2023-02-12T08:21:57.411Z,113.50
2023-02-12T08:24:25.132Z,113.77
2023-02-12T08:26:52.860Z,113.47
2023-02-12T08:29:25.542Z,112.57
2023-02-12T08:32:02.253Z,112.73
2023-02-12T08:34:33.925Z,110.97
2023-02-12T08:37:02.194Z,114.00
2023-02-12T08:39:30.809Z,111.53
2023-02-12T08:42:01.386Z,114.23
2023-02-12T08:44:29.306Z,114.27
2023-02-12T08:46:56.587Z,114.27
2023-02-12T08:49:28.167Z,110.87
2023-02-12T08:51:58.175Z,113.97
2023-02-12T08:54:30.008Z,111.10
2023-02-12T08:57:01.389Z,113.57
2023-02-12T08:59:29.788Z,114.47
2023-02-12T09:04:04.197Z,112.20
2023-02-12T09:06:36.117Z,114.43
2023-02-12T09:09:03.600Z,114.87
2023-02-12T09:11:31.171Z,114.77
2023-02-12T09:14:02.667Z,114.40
2023-02-12T09:16:33.446Z,114.50
2023-02-12T09:19:00.990Z,112.77
2023-02-12T09:21:28.568Z,114.20
2023-02-12T09:23:56.157Z,113.40
2023-02-12T09:26:28.785Z,114.40
2023-02-12T09:28:56.142Z,114.27
2023-02-12T09:31:30.469Z,113.83
2023-02-12T09:34:06.615Z,114.87
2023-02-12T09:36:36.004Z,114.10
2023-02-12T09:39:05.360Z,115.37
2023-02-12T09:42:04.140Z,115.17
2023-02-12T09:44:48.091Z,114.80
2023-02-12T09:47:32.497Z,115.40
2023-02-12T09:50:34.061Z,115.20
2023-02-12T09:53:02.309Z,114.77
2023-02-12T09:55:35.014Z,116.53
2023-02-12T09:58:15.754Z,116.27
2023-02-12T10:00:44.429Z,116.77
2023-02-12T10:03:18.000Z,116.67
2023-02-12T10:05:51.337Z,115.97
2023-02-12T10:09:25.368Z,116.27
2023-02-12T10:12:25.713Z,116.27
2023-02-12T10:15:15.376Z,115.27
2023-02-12T10:18:45.166Z,116.40
2023-02-12T10:22:12.133Z,116.90
2023-02-12T10:25:20.062Z,116.50
2023-02-12T10:27:58.401Z,116.60
2023-02-12T10:30:44.353Z,116.60
2023-02-12T10:33:49.053Z,116.70
2023-02-12T10:36:49.513Z,115.57
2023-02-12T10:39:36.292Z,116.27
2023-02-12T10:42:26.972Z,116.43
2023-02-12T10:44:54.237Z,116.63
2023-02-12T10:47:24.600Z,116.17
2023-02-12T10:49:59.997Z,117.23
2023-02-12T10:52:54.860Z,117.37
2023-02-12T10:55:36.903Z,116.10
2023-02-12T10:58:21.068Z,117.47
2023-02-12T11:00:58.733Z,117.37
2023-02-12T11:03:34.347Z,115.40
2023-02-12T11:06:25.741Z,116.70
2023-02-12T11:08:53.732Z,116.50
2023-02-12T11:11:33.345Z,116.57
2023-02-12T11:14:16.635Z,115.63
2023-02-12T11:16:57.220Z,117.20
2023-02-12T11:19:31.329Z,116.90
2023-02-12T11:22:18.527Z,116.43
2023-02-12T11:24:49.505Z,116.70
2023-02-12T11:27:16.372Z,116.87
2023-02-12T11:29:49.533Z,115.77
2023-02-12T11:32:19.998Z,116.23
2023-02-12T11:35:26.930Z,116.27
2023-02-12T11:37:59.135Z,116.47
2023-02-12T11:40:33.309Z,116.20
2023-02-12T11:43:09.511Z,116.17
2023-02-12T11:45:49.692Z,116.83
2023-02-12T11:48:39.701Z,117.07
2023-02-12T11:51:19.207Z,115.70
2023-02-12T11:53:53.103Z,117.37
2023-02-12T11:56:21.235Z,117.00
2023-02-12T11:58:51.423Z,117.03
2023-02-12T12:01:35.915Z,117.30
2023-02-12T12:04:13.584Z,116.77
2023-02-12T12:06:53.611Z,117.77
2023-02-12T12:09:59.033Z,115.80
2023-02-12T12:12:47.328Z,115.37
2023-02-12T12:16:00.694Z,116.17
2023-02-12T12:19:35.330Z,117.37
2023-02-12T12:22:39.357Z,117.37
2023-02-12T12:25:51.004Z,117.40
2023-02-12T12:28:40.324Z,117.77
2023-02-12T12:31:40.304Z,117.00
2023-02-12T12:34:32.490Z,117.00
2023-02-12T12:37:07.809Z,117.33
2023-02-12T12:40:23.052Z,116.80
2023-02-12T12:43:09.741Z,116.17
2023-02-12T12:46:20.174Z,116.80
2023-02-12T12:49:19.000Z,116.50
2023-02-12T12:52:41.437Z,116.87
2023-02-12T12:55:40.889Z,115.17
2023-02-12T12:59:10.365Z,116.60
2023-02-12T13:02:25.298Z,115.97
2023-02-12T13:05:59.057Z,116.37
2023-02-12T13:09:32.441Z,117.07
2023-02-12T13:12:10.461Z,116.90
2023-02-12T13:15:13.172Z,116.10
2023-02-12T13:17:57.474Z,116.47
2023-02-12T13:21:00.653Z,117.80
2023-02-12T13:24:16.710Z,115.77
2023-02-12T13:27:04.169Z,116.47
2023-02-12T13:29:53.205Z,117.27
2023-02-12T13:32:29.058Z,116.17
2023-02-12T13:34:59.281Z,115.60
2023-02-12T13:37:48.684Z,116.07
2023-02-12T13:40:27.869Z,116.70
2023-02-12T13:43:34.207Z,116.90
2023-02-12T13:46:41.164Z,115.67
2023-02-12T13:50:02.908Z,114.90
2023-02-12T13:53:01.689Z,116.20
2023-02-12T13:55:58.771Z,116.60
2023-02-12T13:58:34.782Z,117.17
2023-02-12T14:01:12.767Z,116.60
2023-02-12T14:03:40.548Z,116.30
2023-02-12T14:06:16.310Z,116.20
2023-02-12T14:08:51.735Z,116.77
2023-02-12T14:11:24.960Z,117.07
2023-02-12T14:14:01.492Z,116.90
2023-02-12T14:16:31.362Z,116.90
2023-02-12T14:19:50.777Z,116.87
2023-02-12T14:22:43.983Z,117.27
2023-02-12T14:25:14.200Z,115.57
2023-02-12T14:27:57.638Z,116.70
2023-02-12T14:30:40.346Z,116.23
2023-02-12T14:33:07.337Z,116.47
2023-02-12T14:35:42.048Z,116.67
2023-02-12T14:38:11.901Z,116.87
2023-02-12T14:40:48.010Z,116.70
2023-02-12T14:43:55.838Z,116.83
2023-02-12T14:46:23.245Z,117.57
2023-02-12T14:49:10.534Z,115.40
2023-02-12T14:51:49.994Z,115.47
2023-02-12T14:55:00.209Z,116.53
2023-02-12T14:57:41.194Z,116.87
2023-02-12T15:00:17.262Z,116.30
2023-02-12T15:03:25.907Z,116.90
2023-02-12T15:06:39.916Z,116.97
2023-02-12T15:09:21.636Z,115.87
2023-02-12T15:12:36.491Z,116.23
2023-02-12T15:15:33.609Z,116.53
2023-02-12T15:18:18.177Z,115.73
2023-02-12T15:20:56.573Z,116.73
2023-02-12T15:23:44.660Z,116.20
2023-02-12T15:26:23.079Z,116.30
2023-02-12T15:28:53.533Z,115.37
2023-02-12T15:31:27.887Z,116.00
2023-02-12T15:33:59.314Z,116.30
2023-02-12T15:36:30.377Z,116.00
2023-02-12T15:39:06.685Z,116.00
2023-02-12T15:41:35.453Z,115.13
2023-02-12T15:44:29.390Z,116.00
2023-02-12T15:47:08.602Z,115.80
2023-02-12T15:49:39.008Z,116.47
2023-02-12T15:52:20.360Z,116.20
2023-02-12T15:54:49.111Z,116.10
2023-02-12T15:57:23.949Z,116.10
2023-02-12T15:59:56.288Z,115.70
2023-02-12T16:02:31.969Z,115.97
2023-02-12T16:05:04.489Z,116.10
2023-02-12T16:07:37.054Z,116.17
2023-02-12T16:10:06.492Z,115.23
2023-02-12T16:12:37.469Z,115.93
2023-02-12T16:15:05.304Z,115.80
2023-02-12T16:17:36.879Z,115.43
2023-02-12T16:20:15.269Z,116.17
2023-02-12T16:22:45.846Z,115.40
2023-02-12T16:25:32.935Z,115.20
2023-02-12T16:28:30.089Z,115.97
2023-02-12T16:31:14.583Z,115.50
2023-02-12T16:33:53.839Z,115.53
2023-02-12T16:36:23.789Z,115.87
2023-02-12T16:39:01.193Z,114.87
2023-02-12T16:41:35.390Z,115.57
2023-02-12T16:44:02.654Z,114.90
2023-02-12T16:46:34.707Z,114.00
2023-02-12T16:49:03.709Z,115.47
2023-02-12T16:51:31.858Z,114.70
2023-02-12T16:54:03.390Z,115.53
2023-02-12T16:56:40.604Z,115.47
2023-02-12T16:59:07.882Z,115.20
2023-02-12T17:01:37.595Z,115.00
2023-02-12T17:04:16.196Z,111.73
2023-02-12T17:06:43.972Z,115.10
2023-02-12T17:09:11.457Z,115.00
2023-02-12T17:11:38.916Z,114.70
2023-02-12T17:14:05.889Z,114.13
2023-02-12T17:16:33.353Z,114.97
2023-02-12T17:19:00.895Z,115.00
2023-02-12T17:21:42.350Z,114.90
2023-02-12T17:24:31.281Z,114.93
2023-02-12T17:26:58.524Z,113.53
2023-02-12T17:29:27.073Z,114.50
2023-02-12T17:31:55.870Z,114.80
2023-02-12T17:34:24.563Z,112.70
2023-02-12T17:36:52.504Z,114.77
2023-02-12T17:39:20.538Z,113.50
2023-02-12T17:41:48.204Z,113.53
2023-02-12T17:44:16.207Z,113.80
2023-02-12T17:46:43.871Z,114.77
2023-02-12T17:49:11.715Z,114.10
2023-02-12T17:51:39.211Z,114.37
2023-02-12T17:54:07.429Z,114.47
2023-02-12T17:56:34.955Z,113.20
2023-02-12T17:59:02.500Z,114.00
2023-02-12T18:01:30.179Z,112.57
2023-02-12T18:04:00.359Z,112.87
2023-02-12T18:06:31.281Z,114.67
2023-02-12T18:09:01.484Z,113.90
2023-02-12T18:11:30.416Z,114.13
2023-02-12T18:13:59.200Z,114.00
2023-02-12T18:16:32.789Z,113.93
2023-02-12T18:19:04.288Z,113.70
2023-02-12T18:21:33.890Z,114.17
2023-02-12T18:24:01.635Z,114.10
2023-02-12T18:26:29.819Z,114.30
2023-02-12T18:28:59.435Z,114.17
2023-02-12T18:31:30.362Z,113.30
2023-02-12T18:33:58.233Z,114.37
2023-02-12T18:36:29.351Z,113.90
2023-02-12T18:38:56.525Z,113.10
2023-02-12T18:41:31.208Z,113.80
2023-02-12T18:44:05.289Z,113.53
2023-02-12T18:46:33.535Z,114.33
2023-02-12T18:49:04.317Z,113.87
2023-02-12T18:51:36.590Z,114.17
2023-02-12T18:54:11.434Z,113.60
2023-02-12T18:56:44.081Z,112.47
2023-02-12T18:59:18.232Z,114.03
2023-02-12T19:01:47.259Z,114.10
2023-02-12T19:04:21.358Z,113.97
2023-02-12T19:06:52.768Z,114.07
2023-02-12T19:09:24.164Z,113.90
2023-02-12T19:11:56.538Z,113.70
2023-02-12T19:14:26.825Z,114.27
2023-02-12T19:16:54.744Z,113.40
2023-02-12T19:19:22.949Z,114.37
2023-02-12T19:21:50.747Z,113.40
2023-02-12T19:24:18.615Z,113.87
2023-02-12T19:26:45.929Z,113.87
2023-02-12T19:29:13.834Z,114.47
2023-02-12T19:31:47.887Z,114.40
2023-02-12T19:34:23.210Z,113.03
2023-02-12T19:36:54.241Z,113.80
2023-02-12T19:39:24.409Z,114.37
2023-02-12T19:41:52.041Z,112.17
2023-02-12T19:44:25.008Z,113.87
2023-02-12T19:46:53.378Z,113.57
2023-02-12T19:49:28.347Z,113.53
2023-02-12T19:51:55.507Z,113.20
2023-02-12T19:54:24.793Z,113.60
2023-02-12T19:56:55.445Z,113.70
2023-02-12T19:59:25.450Z,113.37
2023-02-12T20:01:52.786Z,113.40
2023-02-12T20:04:25.124Z,113.37
2023-02-12T20:06:53.000Z,112.90
2023-02-12T20:09:22.544Z,113.37
2023-02-12T20:11:50.475Z,113.57
2023-02-12T20:14:20.663Z,113.70
2023-02-12T20:16:49.867Z,113.27
2023-02-12T20:19:31.469Z,113.17
2023-02-12T20:22:01.503Z,113.57
2023-02-12T20:24:34.052Z,112.97
2023-02-12T20:27:03.709Z,113.27
2023-02-12T20:29:31.489Z,112.90
2023-02-12T20:31:59.298Z,113.47
2023-02-12T20:34:26.602Z,112.57
2023-02-12T20:36:54.692Z,113.47
2023-02-12T20:39:22.698Z,113.50
2023-02-12T20:41:50.397Z,113.50
2023-02-12T20:44:22.045Z,113.27
2023-02-12T20:46:55.902Z,113.70
2023-02-12T20:49:25.143Z,112.37
2023-02-12T20:51:52.599Z,113.40
2023-02-12T20:54:19.784Z,113.57
2023-02-12T20:56:49.372Z,112.30
2023-02-12T20:59:16.945Z,114.07
2023-02-12T21:01:44.319Z,113.47
2023-02-12T21:04:17.629Z,113.67
2023-02-12T21:06:45.764Z,114.17
2023-02-12T21:09:14.550Z,114.20
2023-02-12T21:11:45.435Z,113.23
2023-02-12T21:14:23.987Z,113.87
2023-02-12T21:16:56.599Z,112.30
2023-02-12T21:19:25.618Z,113.00
2023-02-12T21:21:53.381Z,113.87
2023-02-12T21:24:24.936Z,113.67
2023-02-12T21:26:54.869Z,113.30
2023-02-12T21:29:23.044Z,113.77
2023-02-12T21:31:51.410Z,114.07
2023-02-12T21:34:23.170Z,113.73
2023-02-12T21:36:55.083Z,113.77
2023-02-12T21:39:27.845Z,113.83
2023-02-12T21:42:02.777Z,113.77
2023-02-12T21:44:35.083Z,113.50
2023-02-12T21:47:02.694Z,113.47
2023-02-12T21:49:30.118Z,112.27
2023-02-12T21:52:02.581Z,113.27
2023-02-12T21:54:30.610Z,113.57
2023-02-12T21:56:58.759Z,113.20
2023-02-12T21:59:26.902Z,112.87
2023-02-12T22:01:58.007Z,113.47
2023-02-12T22:04:25.158Z,112.60
2023-02-12T22:06:53.859Z,113.00
2023-02-12T22:09:23.088Z,113.27
2023-02-12T22:11:52.090Z,113.00
2023-02-12T22:14:20.916Z,112.70
2023-02-12T22:16:48.607Z,112.07
2023-02-12T22:19:16.058Z,113.27
2023-02-12T22:21:44.391Z,112.90
2023-02-12T22:24:15.663Z,112.97
2023-02-12T22:26:44.177Z,113.13
2023-02-12T22:29:15.151Z,112.17
2023-02-12T22:31:44.973Z,112.70
2023-02-12T22:34:16.680Z,112.60
2023-02-12T22:36:45.063Z,112.47
2023-02-12T22:39:14.045Z,113.07
2023-02-12T22:41:42.309Z,113.77
2023-02-12T22:44:12.491Z,112.07
2023-02-12T22:46:40.836Z,112.50
2023-02-12T22:49:08.046Z,112.70
2023-02-12T22:51:36.853Z,112.27
2023-02-12T22:54:06.005Z,112.87
2023-02-12T22:56:33.797Z,113.47
2023-02-12T22:59:01.981Z,111.70
2023-02-12T23:01:30.323Z,112.20
2023-02-12T23:03:58.142Z,112.37
2023-02-12T23:06:31.299Z,112.53
2023-02-12T23:09:04.903Z,111.80
2023-02-12T23:11:33.734Z,112.87
2023-02-12T23:14:01.261Z,112.80
2023-02-12T23:16:28.866Z,112.70
2023-02-12T23:19:01.207Z,113.57
2023-02-12T23:21:31.161Z,113.17
2023-02-12T23:23:59.182Z,111.67
2023-02-12T23:26:28.524Z,112.80
2023-02-12T23:28:56.792Z,112.57
2023-02-12T23:31:24.679Z,112.17
2023-02-12T23:33:52.408Z,112.90
2023-02-12T23:36:19.404Z,113.10
2023-02-12T23:38:46.805Z,113.30
2023-02-12T23:41:14.047Z,112.83
2023-02-12T23:43:41.057Z,113.00
2023-02-12T23:46:09.149Z,113.07
2023-02-12T23:48:36.183Z,112.10
2023-02-12T23:51:03.763Z,112.50
2023-02-12T23:53:31.271Z,112.77
2023-02-12T23:55:58.652Z,112.80
2023-02-12T23:58:26.049Z,112.07
